createdAt,value
2022-09-24T00:00:19.780Z,7.70
2022-09-24T00:03:07.424Z,7.70
2022-09-24T00:05:54.926Z,7.70
2022-09-24T00:08:42.624Z,7.60
2022-09-24T00:11:31.181Z,7.60
2022-09-24T00:14:19.665Z,7.70
2022-09-24T00:17:07.150Z,7.70
2022-09-24T00:19:54.620Z,7.70
2022-09-24T00:22:42.155Z,7.70
2022-09-24T00:25:48.306Z,7.70
2022-09-24T00:28:35.832Z,7.70
2022-09-24T00:31:24.482Z,7.70
2022-09-24T00:34:12.370Z,7.70
2022-09-24T00:36:59.910Z,7.70
2022-09-24T00:39:47.365Z,7.70
2022-09-24T00:42:34.850Z,7.80
2022-09-24T00:45:24.751Z,7.80
2022-09-24T00:48:12.416Z,7.80
2022-09-24T00:51:04.350Z,7.80
2022-09-24T00:53:57.275Z,7.70
2022-09-24T00:56:49.279Z,7.80
2022-09-24T00:59:37.235Z,7.80
2022-09-24T01:02:24.875Z,7.90
2022-09-24T01:05:12.554Z,7.90
2022-09-24T01:08:00.280Z,7.90
2022-09-24T01:11:15.346Z,8.00
2022-09-24T01:14:27.177Z,8.00
2022-09-24T01:17:39.541Z,8.00
2022-09-24T01:20:52.623Z,8.00
2022-09-24T01:24:25.296Z,8.00
2022-09-24T01:27:53.120Z,8.00
2022-09-24T01:30:43.131Z,8.00
2022-09-24T01:33:36.279Z,8.10
2022-09-24T01:36:27.980Z,8.10
2022-09-24T01:39:16.651Z,8.10
2022-09-24T01:42:05.737Z,8.10
2022-09-24T01:44:54.900Z,8.00
2022-09-24T01:47:45.930Z,7.90
2022-09-24T01:50:51.970Z,7.70
2022-09-24T01:54:10.114Z,7.60
2022-09-24T01:57:36.140Z,7.60
2022-09-24T02:00:24.445Z,7.50
2022-09-24T02:03:27.327Z,7.50
2022-09-24T02:06:44.966Z,7.50
2022-09-24T02:09:37.406Z,7.50
2022-09-24T02:12:35.175Z,7.40
2022-09-24T02:15:49.358Z,7.40
2022-09-24T02:18:42.219Z,7.40
2022-09-24T02:21:32.751Z,7.30
2022-09-24T02:24:30.654Z,7.30
2022-09-24T02:27:19.591Z,7.30
2022-09-24T02:30:11.199Z,7.30
2022-09-24T02:32:59.932Z,7.30
2022-09-24T02:35:48.238Z,7.30
2022-09-24T02:38:35.715Z,7.30
2022-09-24T02:41:26.266Z,7.30
2022-09-24T02:44:18.120Z,7.30
2022-09-24T02:47:08.295Z,7.30
2022-09-24T02:49:56.246Z,7.30
2022-09-24T02:52:44.440Z,7.30
2022-09-24T02:55:33.611Z,7.20
2022-09-24T02:58:21.381Z,7.20
2022-09-24T03:01:08.986Z,7.20
2022-09-24T03:03:57.022Z,7.20
2022-09-24T03:06:44.687Z,7.10
2022-09-24T03:09:32.291Z,7.20
2022-09-24T03:12:19.734Z,7.10
2022-09-24T03:15:07.671Z,7.20
2022-09-24T03:17:55.107Z,7.10
2022-09-24T03:20:42.962Z,7.10
2022-09-24T03:23:30.771Z,7.10
2022-09-24T03:26:18.415Z,7.10
2022-09-24T03:29:05.875Z,7.10
2022-09-24T03:31:53.519Z,7.20
2022-09-24T03:34:41.111Z,7.10
2022-09-24T03:37:28.857Z,7.10
2022-09-24T03:40:16.470Z,7.00
2022-09-24T03:43:04.126Z,7.10
2022-09-24T03:45:53.217Z,7.10
2022-09-24T03:48:41.939Z,7.10
2022-09-24T03:51:29.435Z,7.10
2022-09-24T03:54:17.175Z,7.10
2022-09-24T03:57:04.642Z,7.10
2022-09-24T03:59:54.315Z,7.10
2022-09-24T04:02:41.912Z,7.10
2022-09-24T04:05:30.615Z,7.10
2022-09-24T04:08:20.501Z,7.10
2022-09-24T04:11:08.055Z,7.00
2022-09-24T04:13:55.544Z,7.00
2022-09-24T04:16:43.051Z,7.00
2022-09-24T04:19:31.933Z,7.00
2022-09-24T04:22:19.430Z,6.90
2022-09-24T04:25:10.277Z,6.90
2022-09-24T04:28:06.646Z,6.90
2022-09-24T04:30:54.281Z,6.90
2022-09-24T04:33:41.892Z,6.80
2022-09-24T04:36:29.386Z,6.80
2022-09-24T04:39:16.915Z,6.80
2022-09-24T04:42:04.480Z,6.70
2022-09-24T04:44:56.031Z,6.70
2022-09-24T04:47:43.835Z,6.70
2022-09-24T04:50:35.051Z,6.70
2022-09-24T04:53:23.645Z,6.70
2022-09-24T04:56:12.195Z,6.70
2022-09-24T04:59:00.018Z,6.70
2022-09-24T05:01:47.746Z,6.60
2022-09-24T05:04:39.189Z,6.70
2022-09-24T05:07:26.862Z,6.60
2022-09-24T05:10:14.421Z,6.60
2022-09-24T05:13:02.507Z,6.60
2022-09-24T05:15:50.924Z,6.70
2022-09-24T05:18:38.432Z,6.70
2022-09-24T05:21:25.966Z,6.70
2022-09-24T05:24:14.060Z,6.60
2022-09-24T05:27:10.671Z,6.60
2022-09-24T05:29:58.220Z,6.70
2022-09-24T05:32:47.252Z,6.70
2022-09-24T05:35:34.756Z,6.80
2022-09-24T05:38:22.514Z,6.90
2022-09-24T05:41:10.247Z,6.90
2022-09-24T05:43:59.833Z,7.00
2022-09-24T05:46:51.613Z,7.10
2022-09-24T05:49:39.411Z,7.20
2022-09-24T05:52:26.937Z,7.30
2022-09-24T05:55:14.665Z,7.40
2022-09-24T05:58:08.020Z,7.50
2022-09-24T06:00:55.475Z,7.60
2022-09-24T06:03:42.995Z,7.70
2022-09-24T06:06:30.515Z,7.80
2022-09-24T06:09:18.034Z,7.90
2022-09-24T06:12:08.585Z,8.00
2022-09-24T06:14:56.191Z,8.10
2022-09-24T06:17:43.670Z,8.20
2022-09-24T06:20:32.284Z,8.30
2022-09-24T06:23:19.774Z,8.50
2022-09-24T06:26:11.265Z,8.50
2022-09-24T06:29:04.401Z,8.70
2022-09-24T06:31:53.836Z,8.80
2022-09-24T06:34:41.311Z,8.90
2022-09-24T06:37:29.080Z,9.10
2022-09-24T06:40:17.103Z,9.30
2022-09-24T06:43:06.928Z,9.60
2022-09-24T06:45:59.117Z,9.80
2022-09-24T06:48:49.645Z,10.00
2022-09-24T06:51:37.250Z,10.20
2022-09-24T06:54:25.396Z,10.20
2022-09-24T06:57:12.945Z,10.20
2022-09-24T07:00:00.587Z,10.30
2022-09-24T07:02:52.494Z,10.30
2022-09-24T07:05:43.528Z,10.60
2022-09-24T07:08:32.828Z,10.80
2022-09-24T07:11:20.375Z,11.00
2022-09-24T07:14:08.101Z,11.00
2022-09-24T07:16:55.620Z,11.10
2022-09-24T07:19:43.246Z,11.20
2022-09-24T07:22:31.040Z,11.30
2022-09-24T07:25:18.596Z,11.40
2022-09-24T07:28:10.230Z,11.50
2022-09-24T07:31:01.296Z,11.50
2022-09-24T07:33:48.796Z,11.50
2022-09-24T07:36:36.377Z,11.60
2022-09-24T07:39:27.449Z,11.50
2022-09-24T07:42:14.961Z,11.50
2022-09-24T07:45:02.470Z,11.50
2022-09-24T07:47:59.571Z,11.70
2022-09-24T07:50:47.440Z,11.90
2022-09-24T07:53:35.055Z,12.20
2022-09-24T07:56:24.941Z,12.40
2022-09-24T07:59:12.559Z,12.60
2022-09-24T08:02:00.123Z,12.90
2022-09-24T08:04:48.407Z,13.10
2022-09-24T08:07:36.020Z,13.30
2022-09-24T08:10:26.553Z,13.60
2022-09-24T08:13:14.058Z,13.80
2022-09-24T08:16:03.595Z,13.90
2022-09-24T08:18:51.130Z,13.80
2022-09-24T08:21:39.482Z,13.90
2022-09-24T08:24:27.020Z,14.20
2022-09-24T08:27:17.316Z,14.40
2022-09-24T08:30:07.268Z,14.50
2022-09-24T08:32:54.811Z,14.80
2022-09-24T08:35:42.332Z,15.00
2022-09-24T08:38:30.130Z,15.00
2022-09-24T08:41:44.521Z,14.90
2022-09-24T08:45:01.759Z,14.80
2022-09-24T08:48:00.756Z,14.60
2022-09-24T08:51:02.426Z,14.50
2022-09-24T08:54:10.071Z,14.30
2022-09-24T08:57:03.122Z,14.30
2022-09-24T08:59:53.085Z,14.30
2022-09-24T09:03:05.225Z,14.40
2022-09-24T09:06:05.225Z,14.50
2022-09-24T09:09:11.003Z,14.60
2022-09-24T09:12:05.065Z,14.70
2022-09-24T09:15:15.477Z,14.80
2022-09-24T09:18:20.040Z,14.90
2022-09-24T09:21:55.701Z,14.80
2022-09-24T09:24:49.697Z,14.80
2022-09-24T09:27:37.330Z,14.90
2022-09-24T09:30:25.021Z,15.00
2022-09-24T09:33:19.760Z,15.20
2022-09-24T09:36:25.436Z,15.30
2022-09-24T09:40:10.455Z,15.40
2022-09-24T09:43:07.716Z,15.60
2022-09-24T09:46:25.764Z,15.90
2022-09-24T09:49:15.596Z,16.20
2022-09-24T09:52:21.560Z,16.30
2022-09-24T09:55:21.066Z,16.40
2022-09-24T09:58:27.849Z,16.40
2022-09-24T10:01:18.811Z,16.70
2022-09-24T10:04:06.729Z,17.00
2022-09-24T10:07:12.405Z,17.10
2022-09-24T10:10:16.910Z,17.30
2022-09-24T10:13:13.456Z,17.20
2022-09-24T10:16:10.404Z,17.20
2022-09-24T10:18:58.021Z,17.10
2022-09-24T10:21:45.625Z,17.30
2022-09-24T10:24:35.097Z,17.60
2022-09-24T10:27:38.036Z,17.70
2022-09-24T10:30:34.476Z,17.60
2022-09-24T10:33:23.002Z,17.60
2022-09-24T10:36:19.255Z,17.60
2022-09-24T10:39:15.701Z,17.50
2022-09-24T10:42:03.340Z,17.40
2022-09-24T10:44:52.939Z,17.40
2022-09-24T10:47:53.635Z,17.40
2022-09-24T10:50:49.954Z,17.40
2022-09-24T10:53:41.681Z,17.40
2022-09-24T10:56:46.658Z,17.40
2022-09-24T11:00:03.200Z,17.40
2022-09-24T11:03:36.956Z,17.50
2022-09-24T11:07:03.306Z,17.70
2022-09-24T11:10:15.714Z,17.80
2022-09-24T11:13:40.781Z,17.90
2022-09-24T11:16:49.225Z,17.90
2022-09-24T11:20:13.404Z,18.00
2022-09-24T11:23:15.771Z,18.10
2022-09-24T11:26:24.852Z,18.10
2022-09-24T11:29:49.185Z,18.10
2022-09-24T11:32:59.431Z,18.00
2022-09-24T11:36:16.195Z,17.90
2022-09-24T11:39:34.480Z,17.90
2022-09-24T11:42:29.131Z,17.90
2022-09-24T11:45:19.600Z,17.80
2022-09-24T11:48:44.942Z,17.80
2022-09-24T11:51:32.406Z,17.80
2022-09-24T11:54:30.470Z,17.70
2022-09-24T11:57:37.684Z,17.70
2022-09-24T12:00:34.071Z,17.80
2022-09-24T12:03:46.070Z,17.80
2022-09-24T12:07:13.441Z,17.90
2022-09-24T12:10:37.367Z,17.90
2022-09-24T12:13:45.337Z,18.00
2022-09-24T12:16:38.506Z,18.00
2022-09-24T12:19:42.101Z,18.00
2022-09-24T12:22:33.427Z,18.10
2022-09-24T12:25:20.924Z,18.10
2022-09-24T12:28:40.000Z,18.20
2022-09-24T12:32:03.388Z,18.30
2022-09-24T12:35:15.246Z,18.40
2022-09-24T12:38:42.600Z,18.40
2022-09-24T12:41:49.756Z,18.40
2022-09-24T12:44:50.951Z,18.50
2022-09-24T12:47:56.042Z,18.60
2022-09-24T12:50:46.180Z,18.80
2022-09-24T12:53:43.277Z,18.90
2022-09-24T12:56:31.508Z,18.80
2022-09-24T12:59:28.518Z,18.90
2022-09-24T13:02:43.162Z,18.90
2022-09-24T13:05:43.151Z,18.80
2022-09-24T13:08:41.325Z,18.80
2022-09-24T13:11:37.952Z,18.70
2022-09-24T13:14:30.661Z,18.50
2022-09-24T13:17:18.721Z,18.40
2022-09-24T13:20:17.801Z,18.40
2022-09-24T13:23:23.120Z,18.40
2022-09-24T13:26:31.302Z,18.40
2022-09-24T13:29:26.550Z,18.40
2022-09-24T13:32:21.767Z,18.40
2022-09-24T13:35:22.173Z,18.50
2022-09-24T13:38:31.534Z,18.70
2022-09-24T13:41:50.884Z,19.00
2022-09-24T13:44:56.412Z,19.10
2022-09-24T13:48:05.793Z,19.30
2022-09-24T13:50:53.886Z,19.30
2022-09-24T13:54:34.320Z,19.30
2022-09-24T13:57:26.559Z,19.30
2022-09-24T14:00:20.227Z,19.20
2022-09-24T14:03:30.047Z,19.10
2022-09-24T14:06:23.065Z,19.20
2022-09-24T14:09:32.400Z,19.10
2022-09-24T14:12:22.862Z,19.10
2022-09-24T14:15:19.410Z,19.20
2022-09-24T14:18:14.385Z,19.20
2022-09-24T14:21:11.860Z,19.00
2022-09-24T14:24:07.017Z,19.00
2022-09-24T14:27:25.071Z,18.80
2022-09-24T14:30:24.041Z,18.70
2022-09-24T14:33:18.250Z,18.40
2022-09-24T14:36:10.240Z,18.10
2022-09-24T14:39:04.581Z,17.90
2022-09-24T14:41:53.430Z,17.90
2022-09-24T14:44:46.412Z,17.80
2022-09-24T14:47:37.010Z,17.80
2022-09-24T14:50:30.786Z,17.70
2022-09-24T14:53:21.236Z,17.60
2022-09-24T14:56:26.410Z,17.50
2022-09-24T14:59:17.920Z,17.40
2022-09-24T15:02:34.990Z,17.20
2022-09-24T15:05:28.249Z,17.00
2022-09-24T15:08:28.233Z,16.90
2022-09-24T15:11:21.407Z,16.90
2022-09-24T15:14:19.290Z,16.80
2022-09-24T15:17:22.340Z,16.70
2022-09-24T15:20:12.888Z,16.70
2022-09-24T15:23:00.356Z,16.70
2022-09-24T15:25:48.081Z,16.60
2022-09-24T15:28:35.580Z,16.60
2022-09-24T15:31:23.307Z,16.60
2022-09-24T15:34:10.966Z,16.60
2022-09-24T15:37:00.155Z,16.50
2022-09-24T15:39:52.755Z,16.40
2022-09-24T15:42:40.231Z,16.40
2022-09-24T15:45:28.158Z,16.40
2022-09-24T15:48:15.902Z,16.40
2022-09-24T15:51:10.077Z,16.40
2022-09-24T15:53:59.416Z,16.40
2022-09-24T15:56:52.249Z,16.30
2022-09-24T15:59:40.561Z,16.30
2022-09-24T16:02:33.228Z,16.20
2022-09-24T16:05:21.664Z,16.10
2022-09-24T16:08:09.165Z,16.00
2022-09-24T16:10:56.730Z,15.90
2022-09-24T16:13:44.217Z,15.80
2022-09-24T16:16:31.898Z,15.70
2022-09-24T16:19:19.520Z,15.70
2022-09-24T16:22:07.145Z,15.60
2022-09-24T16:24:54.688Z,15.60
2022-09-24T16:27:42.726Z,15.50
2022-09-24T16:30:31.502Z,15.50
2022-09-24T16:33:20.971Z,15.40
2022-09-24T16:36:09.711Z,15.40
2022-09-24T16:38:58.899Z,15.40
2022-09-24T16:41:51.490Z,15.40
2022-09-24T16:44:39.015Z,15.30
2022-09-24T16:47:26.637Z,15.30
2022-09-24T16:50:15.561Z,15.20
2022-09-24T16:53:03.266Z,15.20
2022-09-24T16:55:50.803Z,15.10
2022-09-24T16:58:38.276Z,15.10
2022-09-24T17:01:25.811Z,15.10
2022-09-24T17:04:13.837Z,15.10
2022-09-24T17:07:01.341Z,15.00
2022-09-24T17:10:07.650Z,15.00
2022-09-24T17:12:55.196Z,14.90
2022-09-24T17:15:42.800Z,14.90
2022-09-24T17:18:30.335Z,14.90
2022-09-24T17:21:18.131Z,14.80
2022-09-24T17:24:06.965Z,14.70
2022-09-24T17:26:55.225Z,14.60
2022-09-24T17:29:43.121Z,14.50
2022-09-24T17:32:30.822Z,14.50
2022-09-24T17:35:21.510Z,14.40
2022-09-24T17:38:09.086Z,14.30
2022-09-24T17:40:58.739Z,14.20
2022-09-24T17:43:46.551Z,14.10
2022-09-24T17:46:36.037Z,14.00
2022-09-24T17:49:23.683Z,13.90
2022-09-24T17:52:13.509Z,13.90
2022-09-24T17:55:01.090Z,13.80
2022-09-24T17:57:48.571Z,13.80
2022-09-24T18:00:36.126Z,13.70
2022-09-24T18:03:23.647Z,13.70
2022-09-24T18:06:15.331Z,13.70
2022-09-24T18:09:03.596Z,13.60
2022-09-24T18:11:52.852Z,13.60
2022-09-24T18:14:40.363Z,13.50
2022-09-24T18:17:28.048Z,13.50
2022-09-24T18:20:15.752Z,13.50
2022-09-24T18:23:03.462Z,13.50
2022-09-24T18:25:50.959Z,13.50
2022-09-24T18:28:48.066Z,13.50
2022-09-24T18:31:37.165Z,13.50
2022-09-24T18:34:25.320Z,13.50
2022-09-24T18:37:12.816Z,13.50
2022-09-24T18:40:00.565Z,13.50
2022-09-24T18:42:50.257Z,13.60
2022-09-24T18:45:37.885Z,13.60
2022-09-24T18:48:25.436Z,13.60
2022-09-24T18:51:35.981Z,13.60
2022-09-24T18:54:24.972Z,13.60
2022-09-24T18:57:12.486Z,13.60
2022-09-24T19:00:00.022Z,13.60
2022-09-24T19:02:47.698Z,13.60
2022-09-24T19:05:35.427Z,13.60
2022-09-24T19:08:24.620Z,13.50
2022-09-24T19:11:14.466Z,13.50
2022-09-24T19:14:05.068Z,13.50
2022-09-24T19:16:56.474Z,13.40
2022-09-24T19:19:52.167Z,13.40
2022-09-24T19:22:40.074Z,13.40
2022-09-24T19:25:32.560Z,13.30
2022-09-24T19:28:20.266Z,13.30
2022-09-24T19:31:19.147Z,13.20
2022-09-24T19:34:11.545Z,13.30
2022-09-24T19:36:59.126Z,13.20
2022-09-24T19:39:46.711Z,13.20
2022-09-24T19:42:34.227Z,13.20
2022-09-24T19:45:21.857Z,13.20
2022-09-24T19:48:09.361Z,13.20
2022-09-24T19:51:03.640Z,13.20
2022-09-24T19:53:57.541Z,13.10
2022-09-24T19:56:45.081Z,13.20
2022-09-24T19:59:32.570Z,13.20
2022-09-24T20:02:20.263Z,13.10
2022-09-24T20:05:08.420Z,13.20
2022-09-24T20:07:55.965Z,13.10
2022-09-24T20:10:45.005Z,13.10
2022-09-24T20:13:34.065Z,13.10
2022-09-24T20:16:26.458Z,13.10
2022-09-24T20:19:17.043Z,13.10
2022-09-24T20:22:08.501Z,13.00
2022-09-24T20:24:56.300Z,13.00
2022-09-24T20:27:52.965Z,13.00
2022-09-24T20:30:40.938Z,13.00
2022-09-24T20:33:29.400Z,13.00
2022-09-24T20:36:23.239Z,13.00
2022-09-24T20:39:11.982Z,13.00
2022-09-24T20:42:03.985Z,12.90
2022-09-24T20:44:52.749Z,12.90
2022-09-24T20:47:40.323Z,12.90
2022-09-24T20:50:27.876Z,12.80
2022-09-24T20:53:15.347Z,12.80
2022-09-24T20:56:05.135Z,12.80
2022-09-24T20:58:53.811Z,12.80
2022-09-24T21:01:41.685Z,12.70
2022-09-24T21:04:29.217Z,12.70
2022-09-24T21:07:16.781Z,12.70
2022-09-24T21:10:04.581Z,12.70
2022-09-24T21:12:52.087Z,12.60
2022-09-24T21:15:39.727Z,12.60
2022-09-24T21:18:33.314Z,12.60
2022-09-24T21:21:34.820Z,12.60
2022-09-24T21:24:26.332Z,12.50
2022-09-24T21:27:19.056Z,12.60
2022-09-24T21:30:08.027Z,12.50
2022-09-24T21:32:55.516Z,12.50
2022-09-24T21:35:42.980Z,12.50
2022-09-24T21:38:31.287Z,12.50
2022-09-24T21:41:18.768Z,12.50
2022-09-24T21:44:12.581Z,12.50
2022-09-24T21:47:01.495Z,12.50
2022-09-24T21:49:49.006Z,12.50
2022-09-24T21:52:38.272Z,12.50
2022-09-24T21:55:25.780Z,12.40
2022-09-24T21:58:13.256Z,12.50
2022-09-24T22:01:04.960Z,12.50
2022-09-24T22:04:07.545Z,12.50
2022-09-24T22:06:55.198Z,12.40
2022-09-24T22:09:42.730Z,12.40
2022-09-24T22:12:30.456Z,12.40
2022-09-24T22:15:18.021Z,12.40
2022-09-24T22:18:05.721Z,12.40
2022-09-24T22:20:55.261Z,12.40
2022-09-24T22:23:42.881Z,12.40
2022-09-24T22:26:30.627Z,12.40
2022-09-24T22:29:18.177Z,12.40
2022-09-24T22:32:05.782Z,12.50
2022-09-24T22:35:11.890Z,12.50
2022-09-24T22:37:59.615Z,12.50
2022-09-24T22:40:48.023Z,12.50
2022-09-24T22:43:35.825Z,12.50
2022-09-24T22:46:27.571Z,12.40
2022-09-24T22:49:15.251Z,12.40
2022-09-24T22:52:02.831Z,12.40
2022-09-24T22:54:50.343Z,12.40
2022-09-24T22:57:37.821Z,12.40
2022-09-24T23:00:25.361Z,12.40
2022-09-24T23:03:12.817Z,12.40
2022-09-24T23:06:00.434Z,12.40
2022-09-24T23:08:49.552Z,12.40
2022-09-24T23:11:37.160Z,12.40
2022-09-24T23:14:24.872Z,12.40
2022-09-24T23:17:12.434Z,12.40
2022-09-24T23:19:59.980Z,12.30
2022-09-24T23:22:47.601Z,12.30
2022-09-24T23:25:35.085Z,12.30
2022-09-24T23:28:22.656Z,12.30
2022-09-24T23:31:14.796Z,12.30
2022-09-24T23:34:03.470Z,12.30
2022-09-24T23:36:51.389Z,12.30
2022-09-24T23:39:39.513Z,12.30
2022-09-24T23:42:27.262Z,12.40
2022-09-24T23:45:15.319Z,12.40
2022-09-24T23:48:02.877Z,12.40
2022-09-24T23:50:51.310Z,12.40
2022-09-24T23:53:41.464Z,12.40
2022-09-24T23:56:29.200Z,12.40
2022-09-24T23:59:16.878Z,12.40
